Time;durP1;ratioP1;P1;durP2;ratioP2;P2;SDS_P1;SDS_P2;PMS_P1;PMS_P2;Temp;Humidity;BMP_temperature;BMP_pressure;BME280_temperature;BME280_humidity;BME280_pressure;Samples;Min_cycle;Max_cycle;Signal;HPM_P1;HPM_P2
2022/11/18 00:00:47;;;;;;;8.70;8.00;;;;;;;;;;5000537;28;20096;-69
2022/11/18 00:03:13;;;;;;;8.63;8.02;;;;;;;;;;5001453;28;20656;-69
2022/11/18 00:05:39;;;;;;;8.48;7.85;;;;;;;;;;5008696;28;20060;-69
2022/11/18 00:08:04;;;;;;;8.93;8.32;;;;;;;;;;5001183;28;20026;-69
2022/11/18 00:10:30;;;;;;;8.70;8.10;;;;;;;;;;5001832;28;20029;-69
2022/11/18 00:15:40;;;;;;;8.40;7.80;;;;;;;;;;5006789;28;20107;-69
2022/11/18 00:18:06;;;;;;;11.20;9.00;;;;;;;;;;5001959;28;20088;-69
2022/11/18 00:20:33;;;;;;;9.52;8.70;;;;;;;;;;5005029;28;20065;-69
2022/11/18 00:22:58;;;;;;;10.90;9.65;;;;;;;;;;5001595;28;20029;-69
2022/11/18 00:25:25;;;;;;;9.68;8.82;;;;;;;;;;4998689;28;20087;-68
2022/11/18 00:27:50;;;;;;;8.95;8.35;;;;;;;;;;5000288;28;20038;-68
2022/11/18 00:30:16;;;;;;;8.57;7.95;;;;;;;;;;5001356;28;20765;-68
2022/11/18 00:32:42;;;;;;;8.23;7.63;;;;;;;;;;4999726;28;20104;-68
2022/11/18 00:35:08;;;;;;;8.25;7.72;;;;;;;;;;4999962;28;20053;-69
2022/11/18 00:37:33;;;;;;;7.97;7.47;;;;;;;;;;4999955;28;20057;-68
2022/11/18 00:39:59;;;;;;;8.38;7.88;;;;;;;;;;4999817;28;20033;-68
2022/11/18 00:45:09;;;;;;;9.00;8.40;;;;;;;;;;5000557;28;20532;-68
2022/11/18 00:47:34;;;;;;;8.63;8.02;;;;;;;;;;4999982;28;20050;-68
2022/11/18 00:50:00;;;;;;;9.32;8.40;;;;;;;;;;4995875;28;20041;-68
2022/11/18 00:52:25;;;;;;;9.23;8.45;;;;;;;;;;4999441;28;20037;-68
2022/11/18 00:54:51;;;;;;;9.02;8.40;;;;;;;;;;5000342;28;20117;-68
2022/11/18 00:57:16;;;;;;;10.05;9.05;;;;;;;;;;4998635;28;20038;-68
2022/11/18 00:59:42;;;;;;;7.95;7.55;;;;;;;;;;4999016;28;20140;-68
2022/11/18 01:02:07;;;;;;;8.60;7.95;;;;;;;;;;4996750;28;20022;-68
2022/11/18 01:04:33;;;;;;;8.18;7.68;;;;;;;;;;5000685;28;20888;-68
2022/11/18 01:06:59;;;;;;;9.10;8.27;;;;;;;;;;4999669;28;20038;-68
2022/11/18 01:09:24;;;;;;;8.45;7.85;;;;;;;;;;4998241;28;20698;-68
2022/11/18 01:14:34;;;;;;;8.30;7.80;;;;;;;;;;5000189;28;20044;-68
2022/11/18 01:17:00;;;;;;;8.02;7.63;;;;;;;;;;4997955;28;20413;-68
2022/11/18 01:19:26;;;;;;;8.10;7.68;;;;;;;;;;4998482;28;20501;-68
2022/11/18 01:21:51;;;;;;;8.77;8.27;;;;;;;;;;4996888;28;20088;-68
2022/11/18 01:24:17;;;;;;;8.07;7.57;;;;;;;;;;4997209;28;20030;-68
2022/11/18 01:26:42;;;;;;;8.20;7.80;;;;;;;;;;4998253;28;20034;-68
2022/11/18 01:29:08;;;;;;;8.00;7.40;;;;;;;;;;5012211;28;20033;-68
2022/11/18 01:31:34;;;;;;;8.00;7.53;;;;;;;;;;5000311;28;20693;-68
2022/11/18 01:33:59;;;;;;;8.23;7.72;;;;;;;;;;4991645;28;20417;-68
2022/11/18 01:36:26;;;;;;;8.63;7.82;;;;;;;;;;4982997;28;20535;-68
2022/11/18 01:38:53;;;;;;;8.45;7.75;;;;;;;;;;5000271;28;20034;-68
2022/11/18 01:41:21;;;;;;;7.95;7.35;;;;;;;;;;4999745;28;20044;-68
2022/11/18 01:43:49;;;;;;;7.43;7.03;;;;;;;;;;4999468;28;20516;-68
2022/11/18 01:46:15;;;;;;;8.00;7.50;;;;;;;;;;4990364;28;20044;-68
2022/11/18 01:48:40;;;;;;;8.07;7.57;;;;;;;;;;4998617;28;20034;-68
2022/11/18 01:51:15;;;;;;;7.72;7.22;;;;;;;;;;5000300;28;20038;-69
2022/11/18 01:53:44;;;;;;;8.13;7.63;;;;;;;;;;4989129;28;20049;-69
2022/11/18 01:56:15;;;;;;;8.57;8.07;;;;;;;;;;4999690;28;20034;-68
2022/11/18 01:58:48;;;;;;;8.45;7.95;;;;;;;;;;5004507;28;20034;-68
2022/11/18 02:01:14;;;;;;;8.20;7.70;;;;;;;;;;5000167;28;20025;-68
2022/11/18 02:03:41;;;;;;;8.40;7.93;;;;;;;;;;4999445;28;20049;-69
2022/11/18 02:06:08;;;;;;;7.38;6.97;;;;;;;;;;5003474;28;20041;-69
2022/11/18 02:08:36;;;;;;;7.90;7.40;;;;;;;;;;5003007;28;20738;-69
2022/11/18 02:11:49;;;;;;;8.25;7.72;;;;;;;;;;4998421;28;20152;-68
2022/11/18 02:13:56;;;;;;;7.95;7.55;;;;;;;;;;5001207;28;20041;-68
2022/11/18 02:16:31;;;;;;;7.53;7.03;;;;;;;;;;5003845;28;20041;-69
2022/11/18 02:19:04;;;;;;;7.60;7.10;;;;;;;;;;4999867;28;20038;-69
2022/11/18 02:21:36;;;;;;;8.35;7.68;;;;;;;;;;5002754;28;20037;-68
2022/11/18 02:24:19;;;;;;;8.25;7.75;;;;;;;;;;5001895;28;20433;-69
2022/11/18 02:27:00;;;;;;;7.68;7.28;;;;;;;;;;5002129;28;20038;-68
2022/11/18 02:29:32;;;;;;;7.47;7.07;;;;;;;;;;5001160;28;20037;-69
2022/11/18 02:32:08;;;;;;;8.00;7.50;;;;;;;;;;5001416;28;20527;-68
2022/11/18 02:34:47;;;;;;;7.88;7.07;;;;;;;;;;4999560;28;20543;-69
2022/11/18 02:37:28;;;;;;;7.50;6.95;;;;;;;;;;5000705;28;20032;-69
2022/11/18 02:39:58;;;;;;;8.02;7.38;;;;;;;;;;5001224;28;20417;-69
2022/11/18 02:42:26;;;;;;;8.18;7.68;;;;;;;;;;5002417;28;20116;-69
2022/11/18 02:45:01;;;;;;;7.65;7.25;;;;;;;;;;5003444;28;20048;-68
2022/11/18 02:47:28;;;;;;;8.00;7.50;;;;;;;;;;4998316;28;20084;-68
2022/11/18 02:49:58;;;;;;;7.43;7.03;;;;;;;;;;5002316;28;20038;-69
2022/11/18 02:52:26;;;;;;;7.63;7.13;;;;;;;;;;4997951;28;20034;-68
2022/11/18 02:55:14;;;;;;;7.85;7.35;;;;;;;;;;4990902;28;20033;-69
2022/11/18 02:57:43;;;;;;;7.60;7.20;;;;;;;;;;4993293;28;20068;-68
2022/11/18 03:00:09;;;;;;;7.70;7.20;;;;;;;;;;5001387;28;20049;-69
2022/11/18 03:02:41;;;;;;;7.50;7.00;;;;;;;;;;5006194;28;20042;-69
2022/11/18 03:05:12;;;;;;;7.55;7.15;;;;;;;;;;5006812;28;20528;-69
2022/11/18 03:07:41;;;;;;;7.75;7.35;;;;;;;;;;5006917;28;20068;-68
2022/11/18 03:10:07;;;;;;;;;;;;;;;;;;5006964;28;20168;-68
2022/11/18 03:13:01;;;;;;;7.47;7.05;;;;;;;;;;5007788;28;20396;-69
2022/11/18 03:15:46;;;;;;;7.80;7.30;;;;;;;;;;5001993;28;20034;-68
2022/11/18 03:18:52;;;;;;;8.35;7.82;;;;;;;;;;5007437;28;20121;-68
2022/11/18 03:21:17;;;;;;;8.55;8.05;;;;;;;;;;4969248;28;20046;-69
2022/11/18 03:23:52;;;;;;;8.70;7.90;;;;;;;;;;4965191;28;20047;-68
2022/11/18 03:26:24;;;;;;;7.90;7.40;;;;;;;;;;4963238;28;20793;-68
2022/11/18 03:29:00;;;;;;;8.18;7.68;;;;;;;;;;4967581;28;20468;-68
2022/11/18 03:31:51;;;;;;;8.32;7.72;;;;;;;;;;4964091;28;20683;-68
2022/11/18 03:34:23;;;;;;;7.63;7.22;;;;;;;;;;4946828;28;20106;-68
2022/11/18 03:36:54;;;;;;;8.10;7.57;;;;;;;;;;4962764;28;20101;-68
2022/11/18 03:39:22;;;;;;;8.48;7.97;;;;;;;;;;4966320;28;20046;-68
2022/11/18 03:41:51;;;;;;;7.72;7.32;;;;;;;;;;4972750;28;20065;-69
2022/11/18 03:44:22;;;;;;;7.88;7.32;;;;;;;;;;4973022;28;20070;-68
2022/11/18 03:47:11;;;;;;;8.65;7.85;;;;;;;;;;4964234;28;20126;-68
2022/11/18 03:49:44;;;;;;;8.10;7.40;;;;;;;;;;4974338;28;20086;-68
2022/11/18 03:52:34;;;;;;;7.93;7.40;;;;;;;;;;4968490;28;20501;-68
2022/11/18 03:55:07;;;;;;;7.97;7.47;;;;;;;;;;4947690;28;20136;-68
2022/11/18 03:57:46;;;;;;;7.47;7.07;;;;;;;;;;4974010;28;20073;-68
2022/11/18 04:00:14;;;;;;;8.05;7.63;;;;;;;;;;4995799;28;20033;-68
2022/11/18 04:02:40;;;;;;;8.05;7.55;;;;;;;;;;4964418;28;20054;-68
2022/11/18 04:05:09;;;;;;;8.50;8.00;;;;;;;;;;4981079;28;20076;-68
2022/11/18 04:07:41;;;;;;;8.00;7.50;;;;;;;;;;4987873;28;20041;-68
2022/11/18 04:10:16;;;;;;;7.53;7.13;;;;;;;;;;4980170;28;20441;-68
2022/11/18 04:12:54;;;;;;;7.90;7.32;;;;;;;;;;4977921;28;20045;-69
2022/11/18 04:15:19;;;;;;;6.63;6.32;;;;;;;;;;4979359;28;20694;-68
2022/11/18 04:17:45;;;;;;;7.07;6.70;;;;;;;;;;4980253;28;20110;-68
2022/11/18 04:20:19;;;;;;;7.30;6.70;;;;;;;;;;4984475;28;20104;-69
2022/11/18 04:22:45;;;;;;;8.05;7.55;;;;;;;;;;4960997;28;20065;-69
2022/11/18 04:25:11;;;;;;;7.07;6.50;;;;;;;;;;4975077;28;20189;-69
2022/11/18 04:27:36;;;;;;;8.18;7.68;;;;;;;;;;5000815;28;20133;-69
2022/11/18 04:30:03;;;;;;;8.35;7.85;;;;;;;;;;5001168;28;20045;-69
2022/11/18 04:32:28;;;;;;;7.97;7.57;;;;;;;;;;4984850;28;20042;-68
2022/11/18 04:34:54;;;;;;;7.85;7.35;;;;;;;;;;5000963;28;20116;-69
2022/11/18 04:37:20;;;;;;;7.93;7.53;;;;;;;;;;4999891;28;20084;-69
2022/11/18 04:39:45;;;;;;;8.05;7.55;;;;;;;;;;5000251;28;21043;-69
2022/11/18 04:42:11;;;;;;;8.48;7.88;;;;;;;;;;4999468;28;21553;-68
2022/11/18 04:44:36;;;;;;;8.80;8.05;;;;;;;;;;5000925;28;20037;-69
2022/11/18 04:47:04;;;;;;;7.97;7.43;;;;;;;;;;5001298;28;20049;-69
2022/11/18 04:49:30;;;;;;;7.35;6.95;;;;;;;;;;5000900;28;20030;-68
2022/11/18 04:51:57;;;;;;;7.72;7.32;;;;;;;;;;4999395;28;20034;-68
2022/11/18 04:54:23;;;;;;;7.97;7.57;;;;;;;;;;5000399;28;20041;-69
2022/11/18 04:56:49;;;;;;;7.50;7.10;;;;;;;;;;4997988;28;20670;-68
2022/11/18 04:59:18;;;;;;;7.95;7.55;;;;;;;;;;4998148;28;20033;-68
2022/11/18 05:01:44;;;;;;;8.23;7.72;;;;;;;;;;5000908;28;20113;-69
2022/11/18 05:04:15;;;;;;;7.95;7.55;;;;;;;;;;5001271;28;20124;-69
2022/11/18 05:06:41;;;;;;;7.40;7.00;;;;;;;;;;5001117;28;20073;-68
2022/11/18 05:09:06;;;;;;;7.78;7.30;;;;;;;;;;4999187;28;20734;-69
2022/11/18 05:14:16;;;;;;;8.20;7.60;;;;;;;;;;4995635;28;20922;-69
2022/11/18 05:16:42;;;;;;;8.10;7.60;;;;;;;;;;4998547;28;20046;-68
2022/11/18 05:19:08;;;;;;;8.52;8.02;;;;;;;;;;5001272;28;20061;-69
2022/11/18 05:21:33;;;;;;;9.45;8.68;;;;;;;;;;5001281;28;20202;-68
2022/11/18 05:24:00;;;;;;;8.15;7.55;;;;;;;;;;4999144;28;20052;-68
2022/11/18 05:26:26;;;;;;;7.60;7.20;;;;;;;;;;4999819;28;20052;-68
2022/11/18 05:28:51;;;;;;;8.07;7.65;;;;;;;;;;4998556;28;20049;-68
2022/11/18 05:31:17;;;;;;;7.88;7.38;;;;;;;;;;4997491;28;20030;-69
2022/11/18 05:33:43;;;;;;;8.50;8.00;;;;;;;;;;5003094;28;20033;-69
2022/11/18 05:36:16;;;;;;;8.45;7.97;;;;;;;;;;5004083;28;20038;-69
2022/11/18 05:38:42;;;;;;;8.82;8.23;;;;;;;;;;5004641;28;20087;-70
2022/11/18 05:41:07;;;;;;;8.30;7.80;;;;;;;;;;5004732;28;20030;-69
2022/11/18 05:43:34;;;;;;;8.85;8.25;;;;;;;;;;4999808;28;20452;-69
2022/11/18 05:46:00;;;;;;;9.02;8.50;;;;;;;;;;5003743;28;20140;-69
2022/11/18 05:48:26;;;;;;;9.10;8.50;;;;;;;;;;5004486;28;20517;-70
2022/11/18 05:50:53;;;;;;;9.25;8.63;;;;;;;;;;5002509;28;20084;-69
2022/11/18 05:53:21;;;;;;;9.48;8.88;;;;;;;;;;5001019;28;20029;-68
2022/11/18 05:55:57;;;;;;;8.75;8.15;;;;;;;;;;5002973;28;20605;-68
2022/11/18 05:58:23;;;;;;;8.75;8.20;;;;;;;;;;5002436;28;20026;-69
2022/11/18 06:00:52;;;;;;;9.13;8.63;;;;;;;;;;4997952;28;20053;-69
2022/11/18 06:03:22;;;;;;;9.15;8.45;;;;;;;;;;5003769;28;20121;-69
2022/11/18 06:05:48;;;;;;;8.73;8.02;;;;;;;;;;4998559;28;20033;-70
2022/11/18 06:08:16;;;;;;;8.10;7.60;;;;;;;;;;4995305;28;20050;-70
2022/11/18 06:10:44;;;;;;;8.63;8.13;;;;;;;;;;5005552;28;20496;-69
2022/11/18 06:13:16;;;;;;;8.77;8.27;;;;;;;;;;5004501;28;20057;-69
2022/11/18 06:15:43;;;;;;;8.65;8.15;;;;;;;;;;5005548;28;20076;-69
2022/11/18 06:18:23;;;;;;;8.73;8.23;;;;;;;;;;5001524;28;20489;-70
2022/11/18 06:20:50;;;;;;;8.80;8.27;;;;;;;;;;5003966;28;20053;-72
2022/11/18 06:23:16;;;;;;;8.73;8.23;;;;;;;;;;5004871;28;20496;-72
2022/11/18 06:25:42;;;;;;;9.75;8.80;;;;;;;;;;5005023;28;20129;-72
2022/11/18 06:28:09;;;;;;;8.50;7.90;;;;;;;;;;4999424;28;20026;-71
2022/11/18 06:30:35;;;;;;;8.70;8.20;;;;;;;;;;5005063;28;20080;-72
2022/11/18 06:33:00;;;;;;;8.90;8.40;;;;;;;;;;5004145;28;20366;-71
2022/11/18 06:35:26;;;;;;;9.15;8.52;;;;;;;;;;5002708;28;20076;-71
2022/11/18 06:37:51;;;;;;;10.30;9.32;;;;;;;;;;5004553;28;20062;-72
2022/11/18 06:40:17;;;;;;;10.32;9.43;;;;;;;;;;5004470;28;20026;-71
2022/11/18 06:45:27;;;;;;;10.60;9.73;;;;;;;;;;4999083;28;20042;-71
2022/11/18 06:47:56;;;;;;;13.55;12.45;;;;;;;;;;5003206;28;20065;-71
2022/11/18 06:50:22;;;;;;;11.07;10.25;;;;;;;;;;5003549;28;20034;-71
2022/11/18 06:52:47;;;;;;;9.77;9.13;;;;;;;;;;5002014;28;20064;-71
2022/11/18 06:55:13;;;;;;;9.68;8.98;;;;;;;;;;5004134;28;20034;-72
2022/11/18 06:57:38;;;;;;;8.95;8.25;;;;;;;;;;5004348;28;20421;-71
2022/11/18 07:00:05;;;;;;;9.32;8.63;;;;;;;;;;5001930;28;20041;-71
2022/11/18 07:02:31;;;;;;;9.02;8.43;;;;;;;;;;5002753;28;20481;-71
2022/11/18 07:04:56;;;;;;;9.05;8.45;;;;;;;;;;5003675;28;20037;-71
2022/11/18 07:07:22;;;;;;;9.52;8.77;;;;;;;;;;5003038;28;20084;-71
2022/11/18 07:09:47;;;;;;;9.50;8.80;;;;;;;;;;5001774;28;20104;-71
2022/11/18 07:12:13;;;;;;;8.80;8.20;;;;;;;;;;5002580;28;20559;-71
2022/11/18 07:14:38;;;;;;;9.18;8.43;;;;;;;;;;5003634;28;20513;-71
2022/11/18 07:17:05;;;;;;;9.23;8.55;;;;;;;;;;5002879;28;20069;-71
2022/11/18 07:19:30;;;;;;;8.93;8.32;;;;;;;;;;4999189;28;20416;-71
2022/11/18 07:21:58;;;;;;;8.73;8.13;;;;;;;;;;5002842;28;20034;-71
2022/11/18 07:24:23;;;;;;;8.40;7.70;;;;;;;;;;5004510;28;20557;-71
2022/11/18 07:26:49;;;;;;;9.90;9.00;;;;;;;;;;5001169;28;20129;-71
2022/11/18 07:29:14;;;;;;;9.38;8.77;;;;;;;;;;5001691;28;20036;-72
2022/11/18 07:31:40;;;;;;;8.48;7.97;;;;;;;;;;5002923;28;20038;-71
2022/11/18 07:34:06;;;;;;;9.43;8.77;;;;;;;;;;5002776;28;20036;-71
2022/11/18 07:36:32;;;;;;;11.63;8.80;;;;;;;;;;4998307;28;20045;-72
2022/11/18 07:38:59;;;;;;;8.95;8.35;;;;;;;;;;5002479;28;20030;-71
2022/11/18 07:41:27;;;;;;;9.07;8.40;;;;;;;;;;5002954;28;21406;-71
2022/11/18 07:43:54;;;;;;;8.98;8.38;;;;;;;;;;5002234;28;20364;-71
2022/11/18 07:46:21;;;;;;;9.40;8.80;;;;;;;;;;5001140;28;20050;-71
2022/11/18 07:48:49;;;;;;;9.70;8.98;;;;;;;;;;5002430;28;20065;-71
2022/11/18 07:51:17;;;;;;;8.43;7.85;;;;;;;;;;5002856;28;20116;-71
2022/11/18 07:53:42;;;;;;;8.80;8.20;;;;;;;;;;5002796;28;20261;-71
2022/11/18 07:56:09;;;;;;;8.68;8.18;;;;;;;;;;4998160;28;20044;-70
2022/11/18 07:58:35;;;;;;;8.50;7.90;;;;;;;;;;5003490;28;20429;-70
2022/11/18 08:01:10;;;;;;;8.32;7.82;;;;;;;;;;5002134;28;20041;-72
2022/11/18 08:03:36;;;;;;;9.02;8.10;;;;;;;;;;4999067;28;20069;-71
2022/11/18 08:06:02;;;;;;;8.02;7.53;;;;;;;;;;5002694;28;20121;-72
2022/11/18 08:08:28;;;;;;;8.60;7.90;;;;;;;;;;5003493;28;20030;-71
2022/11/18 08:10:56;;;;;;;8.60;8.10;;;;;;;;;;5002681;28;20046;-71
2022/11/18 08:13:22;;;;;;;8.05;7.38;;;;;;;;;;4998490;28;20064;-72
2022/11/18 08:15:47;;;;;;;8.48;7.97;;;;;;;;;;5002751;28;20042;-71
2022/11/18 08:18:13;;;;;;;8.63;8.07;;;;;;;;;;5002490;28;20541;-70
2022/11/18 08:20:38;;;;;;;9.00;7.97;;;;;;;;;;5002673;28;20237;-71
2022/11/18 08:23:04;;;;;;;8.95;8.25;;;;;;;;;;5001064;28;20044;-71
2022/11/18 08:25:30;;;;;;;8.95;8.23;;;;;;;;;;5002811;28;20551;-71
2022/11/18 08:27:55;;;;;;;7.70;7.30;;;;;;;;;;5017995;28;20042;-71
2022/11/18 08:30:21;;;;;;;8.75;8.15;;;;;;;;;;4999811;28;20037;-71
2022/11/18 08:32:46;;;;;;;8.82;8.13;;;;;;;;;;5003068;28;20547;-70
2022/11/18 08:35:13;;;;;;;8.88;8.38;;;;;;;;;;5003411;28;20034;-71
2022/11/18 08:37:38;;;;;;;9.57;8.88;;;;;;;;;;4999480;28;20290;-70
2022/11/18 08:40:04;;;;;;;9.70;9.10;;;;;;;;;;5002686;28;20419;-71
2022/11/18 08:42:30;;;;;;;8.85;8.13;;;;;;;;;;5002405;28;20037;-70
2022/11/18 08:44:56;;;;;;;9.20;8.70;;;;;;;;;;5003381;28;20174;-70
2022/11/18 08:47:21;;;;;;;9.32;8.73;;;;;;;;;;4998393;28;20034;-71
2022/11/18 08:49:47;;;;;;;8.55;7.93;;;;;;;;;;5002382;28;20057;-71
2022/11/18 08:52:13;;;;;;;8.90;8.30;;;;;;;;;;4999454;28;20300;-71
2022/11/18 08:54:38;;;;;;;9.25;8.65;;;;;;;;;;4999945;28;20588;-71
2022/11/18 08:57:04;;;;;;;9.05;8.45;;;;;;;;;;5002039;28;20120;-70
2022/11/18 08:59:29;;;;;;;9.50;8.60;;;;;;;;;;5002994;28;20029;-70
2022/11/18 09:01:55;;;;;;;8.85;8.23;;;;;;;;;;4999631;28;20042;-72
2022/11/18 09:04:20;;;;;;;9.07;8.48;;;;;;;;;;5001937;28;20116;-71
2022/11/18 09:06:46;;;;;;;8.27;7.88;;;;;;;;;;5003591;28;20416;-70
2022/11/18 09:09:11;;;;;;;8.65;8.15;;;;;;;;;;5006637;28;20477;-71
2022/11/18 09:11:38;;;;;;;8.63;8.02;;;;;;;;;;5004607;28;20045;-71
2022/11/18 09:14:04;;;;;;;8.70;8.10;;;;;;;;;;5006308;28;20025;-71
2022/11/18 09:16:32;;;;;;;8.77;8.27;;;;;;;;;;5006129;28;20098;-72
2022/11/18 09:18:58;;;;;;;8.77;8.27;;;;;;;;;;5006594;28;20026;-71
2022/11/18 09:21:24;;;;;;;9.27;8.77;;;;;;;;;;5003705;28;20037;-71
2022/11/18 09:23:50;;;;;;;9.18;8.68;;;;;;;;;;5004985;28;20045;-71
2022/11/18 09:26:19;;;;;;;9.00;8.50;;;;;;;;;;5005824;28;20104;-71
2022/11/18 09:28:45;;;;;;;8.75;8.07;;;;;;;;;;5006477;28;20478;-71
2022/11/18 09:31:13;;;;;;;8.88;8.32;;;;;;;;;;5000194;28;20041;-70
2022/11/18 09:33:39;;;;;;;8.70;8.18;;;;;;;;;;5005755;28;20033;-70
2022/11/18 09:36:14;;;;;;;8.35;7.85;;;;;;;;;;5006752;28;20083;-70
2022/11/18 09:38:40;;;;;;;8.52;8.02;;;;;;;;;;5003909;28;20176;-70
2022/11/18 09:41:08;;;;;;;9.30;8.73;;;;;;;;;;5006379;28;20034;-70
2022/11/18 09:43:52;;;;;;;8.38;7.88;;;;;;;;;;5006764;28;20398;-70
2022/11/18 09:46:29;;;;;;;8.93;8.43;;;;;;;;;;5003330;28;20489;-70
2022/11/18 09:49:14;;;;;;;8.93;8.32;;;;;;;;;;5005466;28;20042;-71
2022/11/18 09:51:48;;;;;;;9.32;8.73;;;;;;;;;;5006400;28;20117;-70
2022/11/18 09:54:24;;;;;;;9.30;8.70;;;;;;;;;;5001301;28;20069;-70
2022/11/18 09:56:51;;;;;;;9.07;8.48;;;;;;;;;;5004503;28;20465;-71
2022/11/18 09:59:19;;;;;;;8.60;8.07;;;;;;;;;;5006143;28;20516;-71
2022/11/18 10:01:46;;;;;;;11.27;8.63;;;;;;;;;;5005672;28;20033;-70
2022/11/18 10:04:16;;;;;;;8.75;8.25;;;;;;;;;;5001621;28;20038;-71
2022/11/18 10:06:43;;;;;;;9.55;8.85;;;;;;;;;;5005459;28;20079;-72
2022/11/18 10:09:27;;;;;;;9.50;8.90;;;;;;;;;;5005496;28;20497;-71
2022/11/18 10:11:55;;;;;;;10.07;9.35;;;;;;;;;;5003188;28;20492;-70
2022/11/18 10:14:42;;;;;;;9.80;9.10;;;;;;;;;;5005724;28;20125;-72
2022/11/18 10:17:20;;;;;;;11.30;10.18;;;;;;;;;;5004926;28;20410;-71
2022/11/18 10:20:10;;;;;;;10.15;9.43;;;;;;;;;;5003054;28;20401;-71
2022/11/18 10:22:52;;;;;;;10.13;9.52;;;;;;;;;;5001685;28;20512;-71
2022/11/18 10:25:18;;;;;;;15.30;13.50;;;;;;;;;;5004557;28;20033;-71
2022/11/18 10:27:46;;;;;;;10.35;9.55;;;;;;;;;;5007365;28;20114;-70
2022/11/18 10:30:21;;;;;;;10.35;9.52;;;;;;;;;;5001848;28;20112;-71
2022/11/18 10:33:01;;;;;;;10.20;9.40;;;;;;;;;;5004337;28;20216;-70
2022/11/18 10:35:36;;;;;;;10.00;9.20;;;;;;;;;;5002095;28;20412;-70
2022/11/18 10:38:16;;;;;;;10.18;9.38;;;;;;;;;;5003717;28;20026;-70
2022/11/18 10:40:56;;;;;;;10.40;9.70;;;;;;;;;;5001036;28;20038;-71
2022/11/18 10:43:57;;;;;;;10.07;9.48;;;;;;;;;;5004120;28;20041;-70
2022/11/18 10:46:38;;;;;;;10.18;9.57;;;;;;;;;;4976875;28;20042;-70
2022/11/18 10:49:09;;;;;;;10.18;9.27;;;;;;;;;;4961590;28;20102;-71
2022/11/18 10:51:38;;;;;;;9.57;8.98;;;;;;;;;;4956443;28;20254;-70
2022/11/18 10:54:19;;;;;;;9.95;9.27;;;;;;;;;;4967251;28;20049;-71
2022/11/18 10:56:52;;;;;;;10.02;9.35;;;;;;;;;;4974273;28;20126;-72
2022/11/18 10:59:56;;;;;;;10.30;9.70;;;;;;;;;;4962818;28;20510;-71
2022/11/18 11:02:39;;;;;;;9.68;8.98;;;;;;;;;;4969718;28;20034;-71
2022/11/18 11:05:17;;;;;;;9.30;8.80;;;;;;;;;;4968477;28;20070;-70
2022/11/18 11:07:43;;;;;;;11.00;10.00;;;;;;;;;;4961314;28;20055;-71
2022/11/18 11:10:11;;;;;;;9.95;9.35;;;;;;;;;;4972374;28;20149;-71
2022/11/18 11:12:45;;;;;;;9.55;8.95;;;;;;;;;;4966416;28;20042;-71
2022/11/18 11:15:23;;;;;;;10.30;9.60;;;;;;;;;;4974109;28;20068;-70
2022/11/18 11:20:51;;;;;;;9.52;8.80;;;;;;;;;;4988311;28;20512;-71
2022/11/18 11:23:17;;;;;;;9.82;9.23;;;;;;;;;;5003468;28;20087;-71
2022/11/18 11:25:48;;;;;;;9.80;9.20;;;;;;;;;;5001470;28;20142;-70
2022/11/18 11:28:26;;;;;;;9.60;9.00;;;;;;;;;;4996683;28;20049;-72
2022/11/18 11:31:04;;;;;;;10.98;10.27;;;;;;;;;;4999478;28;20402;-71
2022/11/18 11:33:58;;;;;;;10.25;9.57;;;;;;;;;;4998250;28;20156;-71
2022/11/18 11:36:44;;;;;;;9.70;9.00;;;;;;;;;;4998799;28;20057;-71
2022/11/18 11:39:32;;;;;;;9.90;9.30;;;;;;;;;;5001177;28;20489;-71
2022/11/18 11:42:09;;;;;;;10.18;9.57;;;;;;;;;;5000067;28;20049;-70
2022/11/18 11:44:52;;;;;;;10.48;9.77;;;;;;;;;;4993633;28;20080;-71
2022/11/18 11:47:48;;;;;;;11.23;10.43;;;;;;;;;;4999972;28;20458;-70
2022/11/18 11:50:20;;;;;;;9.50;8.90;;;;;;;;;;4999418;28;20041;-71
2022/11/18 11:53:06;;;;;;;9.23;8.63;;;;;;;;;;4998747;28;20042;-71
2022/11/18 11:55:55;;;;;;;10.05;9.30;;;;;;;;;;4997507;28;20109;-71
2022/11/18 11:58:38;;;;;;;10.02;9.32;;;;;;;;;;5000713;28;20037;-71
2022/11/18 12:01:12;;;;;;;9.73;9.02;;;;;;;;;;5000382;28;20481;-71
2022/11/18 12:03:52;;;;;;;8.82;8.32;;;;;;;;;;4998077;28;20046;-71
2022/11/18 12:06:17;;;;;;;9.45;8.75;;;;;;;;;;4998984;28;20038;-71
2022/11/18 12:09:19;;;;;;;10.65;9.38;;;;;;;;;;5001031;28;20364;-70
2022/11/18 12:11:55;;;;;;;8.50;8.00;;;;;;;;;;4999850;28;20036;-71
2022/11/18 12:14:27;;;;;;;9.43;8.50;;;;;;;;;;5000364;28;20108;-71
2022/11/18 12:17:10;;;;;;;8.52;8.02;;;;;;;;;;4999721;28;20041;-71
2022/11/18 12:19:38;;;;;;;9.30;8.60;;;;;;;;;;5000902;28;20045;-71
2022/11/18 12:22:05;;;;;;;8.65;8.02;;;;;;;;;;4994539;28;20084;-71
2022/11/18 12:24:41;;;;;;;9.10;8.40;;;;;;;;;;5000794;28;20041;-71
2022/11/18 12:27:18;;;;;;;8.50;7.95;;;;;;;;;;4999415;28;20038;-71
2022/11/18 12:29:47;;;;;;;9.20;8.60;;;;;;;;;;4998749;28;20045;-71
2022/11/18 12:32:45;;;;;;;9.18;8.48;;;;;;;;;;4998436;28;20037;-71
2022/11/18 12:35:10;;;;;;;8.93;8.40;;;;;;;;;;5000587;28;20425;-71
2022/11/18 12:37:42;;;;;;;9.27;8.57;;;;;;;;;;4997292;28;20046;-71
2022/11/18 12:40:29;;;;;;;8.98;8.45;;;;;;;;;;4999611;28;20037;-72
2022/11/18 12:45:38;;;;;;;9.07;8.32;;;;;;;;;;4997643;28;20041;-71
2022/11/18 12:48:40;;;;;;;8.75;8.20;;;;;;;;;;4998380;28;20114;-71
2022/11/18 12:51:14;;;;;;;8.60;8.10;;;;;;;;;;4999832;28;20591;-71
2022/11/18 12:53:52;;;;;;;9.02;8.32;;;;;;;;;;4999210;28;20096;-72
2022/11/18 12:56:21;;;;;;;8.93;8.32;;;;;;;;;;4997472;28;20298;-71
2022/11/18 12:58:49;;;;;;;8.75;8.07;;;;;;;;;;5000025;28;20165;-71
2022/11/18 13:01:19;;;;;;;8.93;8.23;;;;;;;;;;5000098;28;20773;-70
2022/11/18 13:03:45;;;;;;;8.15;7.55;;;;;;;;;;4995565;28;20034;-71
2022/11/18 13:06:27;;;;;;;8.63;7.93;;;;;;;;;;4999455;28;20083;-71
2022/11/18 13:09:02;;;;;;;8.02;7.53;;;;;;;;;;4999520;28;20046;-71
2022/11/18 13:11:45;;;;;;;8.13;7.63;;;;;;;;;;4999145;28;20125;-71
2022/11/18 13:19:56;;;;;;;8.65;7.80;;;;;;;;;;5000186;28;20053;-71
2022/11/18 13:25:27;;;;;;;8.13;7.63;;;;;;;;;;4999989;28;20072;-70
2022/11/18 13:28:12;;;;;;;8.85;7.95;;;;;;;;;;4999503;28;20145;-71
2022/11/18 13:30:51;;;;;;;8.00;7.50;;;;;;;;;;4997708;28;20042;-71
2022/11/18 13:33:16;;;;;;;8.35;7.85;;;;;;;;;;4998875;28;20030;-72
2022/11/18 13:35:42;;;;;;;8.45;7.75;;;;;;;;;;5000257;28;20124;-71
2022/11/18 13:38:19;;;;;;;7.80;7.30;;;;;;;;;;4999849;28;20034;-71
2022/11/18 13:41:03;;;;;;;8.20;7.70;;;;;;;;;;4996174;28;20080;-71
2022/11/18 13:43:35;;;;;;;8.77;8.07;;;;;;;;;;4995606;28;20158;-71
2022/11/18 13:46:05;;;;;;;8.73;7.93;;;;;;;;;;4999763;28;20042;-71
2022/11/18 13:48:33;;;;;;;8.50;7.90;;;;;;;;;;4992006;28;20430;-70
2022/11/18 13:50:59;;;;;;;8.93;8.23;;;;;;;;;;5000170;28;20041;-71
2022/11/18 13:53:29;;;;;;;8.20;7.55;;;;;;;;;;5000905;28;20038;-71
2022/11/18 13:56:03;;;;;;;;;;;;;;;;;;4999773;28;20033;-72
2022/11/18 13:58:47;;;;;;;8.43;7.82;;;;;;;;;;5003188;28;20012;-71
2022/11/18 14:01:15;;;;;;;7.82;7.38;;;;;;;;;;5002580;28;20390;-71
2022/11/18 14:03:53;;;;;;;7.32;6.82;;;;;;;;;;4999960;28;20588;-71
2022/11/18 14:06:36;;;;;;;8.02;7.43;;;;;;;;;;5001877;28;20042;-72
2022/11/18 14:09:24;;;;;;;8.07;7.47;;;;;;;;;;5003354;28;20045;-71
2022/11/18 14:11:56;;;;;;;8.05;7.50;;;;;;;;;;4998758;28;20073;-73
2022/11/18 14:14:36;;;;;;;9.75;8.77;;;;;;;;;;5002808;28;20520;-72
2022/11/18 14:17:05;;;;;;;8.57;7.63;;;;;;;;;;5004941;28;20041;-73
2022/11/18 14:19:32;;;;;;;9.00;8.30;;;;;;;;;;5003103;28;20041;-72
2022/11/18 14:22:14;;;;;;;8.20;7.65;;;;;;;;;;4997799;28;20034;-73
2022/11/18 14:24:41;;;;;;;8.18;7.63;;;;;;;;;;5000582;28;20602;-72
2022/11/18 14:27:37;;;;;;;8.10;7.47;;;;;;;;;;5002196;28;20038;-72
2022/11/18 14:30:30;;;;;;;8.50;8.00;;;;;;;;;;4999607;28;20046;-72
2022/11/18 14:33:29;;;;;;;7.80;7.30;;;;;;;;;;5002073;28;20038;-72
2022/11/18 14:36:15;;;;;;;8.70;8.15;;;;;;;;;;4966037;28;20054;-72
2022/11/18 14:38:47;;;;;;;7.95;7.40;;;;;;;;;;4960818;28;20050;-72
2022/11/18 14:41:45;;;;;;;9.02;8.30;;;;;;;;;;4968442;28;20043;-73
2022/11/18 14:44:02;;;;;;;9.02;8.32;;;;;;;;;;4966057;28;20043;-73
2022/11/18 14:46:27;;;;;;;8.25;7.72;;;;;;;;;;4965798;28;20444;-72
2022/11/18 14:48:53;;;;;;;8.30;7.80;;;;;;;;;;4964293;28;20127;-72
2022/11/18 14:51:19;;;;;;;8.30;7.78;;;;;;;;;;4966302;28;20049;-72
2022/11/18 14:53:44;;;;;;;8.40;7.90;;;;;;;;;;4968239;28;20493;-72
2022/11/18 14:56:19;;;;;;;9.02;8.05;;;;;;;;;;4961409;28;20039;-72
2022/11/18 14:58:45;;;;;;;8.60;8.00;;;;;;;;;;4960202;28;20745;-72
2022/11/18 15:01:12;;;;;;;8.68;7.97;;;;;;;;;;4970724;28;20046;-72
2022/11/18 15:03:38;;;;;;;9.05;8.43;;;;;;;;;;4967377;28;20556;-72
2022/11/18 15:06:11;;;;;;;8.25;7.75;;;;;;;;;;4969651;28;20043;-72
2022/11/18 15:08:36;;;;;;;8.38;7.78;;;;;;;;;;4961813;28;20628;-72
2022/11/18 15:11:02;;;;;;;8.20;7.60;;;;;;;;;;4950426;28;20038;-72
2022/11/18 15:13:27;;;;;;;9.02;8.32;;;;;;;;;;4996999;28;20057;-72
2022/11/18 15:15:53;;;;;;;9.18;8.43;;;;;;;;;;4999730;28;20046;-72
2022/11/18 15:18:18;;;;;;;9.00;8.20;;;;;;;;;;5004232;28;20033;-72
2022/11/18 15:20:44;;;;;;;9.13;8.40;;;;;;;;;;5003405;28;20085;-72
2022/11/18 15:23:09;;;;;;;8.95;8.30;;;;;;;;;;4998988;28;20045;-72
2022/11/18 15:25:35;;;;;;;8.63;8.13;;;;;;;;;;5000424;28;20201;-72
2022/11/18 15:28:00;;;;;;;9.02;8.40;;;;;;;;;;5004006;28;20029;-72
2022/11/18 15:30:26;;;;;;;8.77;7.93;;;;;;;;;;5006581;28;20029;-73
2022/11/18 15:32:51;;;;;;;9.10;8.38;;;;;;;;;;4996715;28;20113;-73